Time,TemperatureF,DewpointF,PressureIn,WindDirection,WindDirectionDegrees,WindSpeedMPH,WindSpeedGustMPH,Humidity,HourlyPrecipIn,Conditions,Clouds,dailyrainin,SoftwareType,DateUTC
2013-05-26 00:02:00,51.5,39.9,30.30,ESE,117,0.0,0.0,65,-99.99,,,0.00,1-wire,2013-05-26 05:02:00,
2013-05-26 00:07:00,51.2,40.2,30.30,ESE,116,0.0,0.0,66,-99.99,,,0.00,1-wire,2013-05-26 05:07:00,
2013-05-26 00:12:00,50.6,39.8,30.30,ESE,116,0.0,0.0,66,-99.99,,,0.00,1-wire,2013-05-26 05:12:00,
2013-05-26 00:17:00,50.7,39.9,30.30,ESE,116,0.0,0.0,67,-99.99,,,0.00,1-wire,2013-05-26 05:17:00,
2013-05-26 00:22:00,49.9,39.8,30.30,ESE,103,0.0,0.0,68,-99.99,,,0.00,1-wire,2013-05-26 05:22:00,
2013-05-26 00:27:00,49.6,39.2,30.30,ESE,103,0.0,0.0,67,-99.99,,,0.00,1-wire,2013-05-26 05:27:00,
2013-05-26 00:32:00,49.6,39.7,30.30,ESE,103,0.0,0.0,69,-99.99,,,0.00,1-wire,2013-05-26 05:32:00,
2013-05-26 00:37:00,49.5,39.7,30.30,ESE,111,0.0,0.0,69,-99.99,,,0.00,1-wire,2013-05-26 05:37:00,
2013-05-26 00:42:00,49.1,39.7,30.30,ESE,111,0.0,0.0,70,-99.99,,,0.00,1-wire,2013-05-26 05:42:00,
2013-05-26 00:47:00,48.5,39.6,30.31,ESE,111,0.0,0.0,71,-99.99,,,0.00,1-wire,2013-05-26 05:47:00,
2013-05-26 00:52:00,48.4,39.5,30.30,ESE,108,0.0,0.0,71,-99.99,,,0.00,1-wire,2013-05-26 05:52:00,
2013-05-26 00:57:00,48.3,39.7,30.30,ESE,108,0.0,0.0,72,-99.99,,,0.00,1-wire,2013-05-26 05:57:00,
2013-05-26 01:02:00,48.6,40.0,30.30,ESE,108,0.0,0.0,72,-99.99,,,0.00,1-wire,2013-05-26 06:02:00,
2013-05-26 01:07:00,48.2,39.5,30.30,ENE,66,0.0,0.0,72,-99.99,,,0.00,1-wire,2013-05-26 06:07:00,
2013-05-26 01:12:00,48.2,39.6,30.29,ENE,66,0.0,0.0,72,-99.99,,,0.00,1-wire,2013-05-26 06:12:00,
2013-05-26 01:17:00,48.3,40.0,30.29,ENE,66,0.0,0.0,73,-99.99,,,0.00,1-wire,2013-05-26 06:17:00,
2013-05-26 01:22:00,48.1,39.0,30.29,East,83,0.0,0.0,71,-99.99,,,0.00,1-wire,2013-05-26 06:22:00,
2013-05-26 01:28:00,47.6,38.2,30.29,East,83,0.0,0.0,70,-99.99,,,0.00,1-wire,2013-05-26 06:28:00,
2013-05-26 01:33:00,47.6,38.5,30.29,East,83,0.0,0.0,71,-99.99,,,0.00,1-wire,2013-05-26 06:33:00,
2013-05-26 01:39:00,47.5,38.4,30.29,East,85,0.0,3.0,71,-99.99,,,0.00,1-wire,2013-05-26 06:39:00,
2013-05-26 01:45:00,47.7,38.7,30.28,East,85,0.0,0.0,71,-99.99,,,0.00,1-wire,2013-05-26 06:45:00,
2013-05-26 01:50:00,47.6,38.6,30.28,East,85,0.0,0.0,71,-99.99,,,0.00,1-wire,2013-05-26 06:50:00,
2013-05-26 01:56:00,47.5,38.0,30.28,East,86,0.0,0.0,70,-99.99,,,0.00,1-wire,2013-05-26 06:56:00,
2013-05-26 02:01:00,47.5,37.9,30.27,East,86,0.0,0.0,69,-99.99,,,0.00,1-wire,2013-05-26 07:01:00,
2013-05-26 02:06:00,47.5,38.0,30.27,NNE,29,0.0,0.0,69,-99.99,,,0.00,1-wire,2013-05-26 07:06:00,
2013-05-26 02:11:00,47.2,37.7,30.27,NNE,29,0.0,0.0,69,-99.99,,,0.00,1-wire,2013-05-26 07:11:00,
2013-05-26 02:16:00,47.1,37.7,30.27,NNE,29,0.0,0.0,70,-99.99,,,0.00,1-wire,2013-05-26 07:16:00,
2013-05-26 02:22:00,46.8,37.5,30.28,NNE,30,0.0,0.0,70,-99.99,,,0.00,1-wire,2013-05-26 07:22:00,
2013-05-26 02:27:00,46.6,37.5,30.28,NNE,30,0.0,0.0,70,-99.99,,,0.00,1-wire,2013-05-26 07:27:00,
2013-05-26 02:43:00,46.5,37.9,30.27,NNE,29,0.0,0.0,72,-99.99,,,0.00,1-wire,2013-05-26 07:43:00,
2013-05-26 02:48:00,46.5,37.9,30.27,NNE,29,0.0,0.0,72,-99.99,,,0.00,1-wire,2013-05-26 07:48:00,
2013-05-26 02:53:00,46.3,38.0,30.27,NNE,29,0.0,0.0,72,-99.99,,,0.00,1-wire,2013-05-26 07:53:00,
2013-05-26 02:58:00,46.0,37.8,30.27,NNE,29,0.0,0.0,73,-99.99,,,0.00,1-wire,2013-05-26 07:58:00,
2013-05-26 03:03:00,45.7,37.2,30.27,NNE,29,0.0,0.0,72,-99.99,,,0.00,1-wire,2013-05-26 08:03:00,
2013-05-26 03:08:00,45.6,37.3,30.27,NE,40,0.0,0.0,73,-99.99,,,0.00,1-wire,2013-05-26 08:08:00,
2013-05-26 03:13:00,45.3,37.2,30.27,NE,40,0.0,0.0,73,-99.99,,,0.00,1-wire,2013-05-26 08:13:00,
2013-05-26 03:18:00,45.1,37.1,30.27,NE,40,0.0,0.0,73,-99.99,,,0.00,1-wire,2013-05-26 08:18:00,
2013-05-26 03:23:00,44.8,36.3,30.27,ENE,72,0.0,0.0,72,-99.99,,,0.00,1-wire,2013-05-26 08:23:00,
2013-05-26 03:28:00,45.1,36.1,30.26,ENE,72,0.0,0.0,71,-99.99,,,0.00,1-wire,2013-05-26 08:28:00,
2013-05-26 03:33:00,45.3,36.1,30.26,ENE,72,0.0,0.0,70,-99.99,,,0.00,1-wire,2013-05-26 08:33:00,
2013-05-26 03:38:00,45.3,35.7,30.26,ENE,76,0.0,0.0,69,-99.99,,,0.00,1-wire,2013-05-26 08:38:00,
2013-05-26 03:43:00,45.2,36.3,30.26,ENE,76,0.0,0.0,71,-99.99,,,0.00,1-wire,2013-05-26 08:43:00,
2013-05-26 03:48:00,45.2,36.2,30.26,ENE,76,0.0,0.0,70,-99.99,,,0.00,1-wire,2013-05-26 08:48:00,
2013-05-26 03:53:00,45.1,35.6,30.25,ENE,71,0.0,0.0,69,-99.99,,,0.00,1-wire,2013-05-26 08:53:00,
2013-05-26 03:58:00,45.1,36.0,30.25,ENE,71,0.0,0.0,70,-99.99,,,0.00,1-wire,2013-05-26 08:58:00,
2013-05-26 04:03:00,45.3,36.4,30.26,ENE,71,0.0,0.0,71,-99.99,,,0.00,1-wire,2013-05-26 09:03:00,
2013-05-26 04:08:00,45.6,36.5,30.26,ENE,72,0.0,0.0,70,-99.99,,,0.00,1-wire,2013-05-26 09:08:00,
2013-05-26 04:13:00,46.1,37.0,30.26,ENE,72,0.0,0.0,70,-99.99,,,0.00,1-wire,2013-05-26 09:13:00,
2013-05-26 04:18:00,46.2,36.9,30.26,ENE,72,0.0,0.0,70,-99.99,,,0.00,1-wire,2013-05-26 09:18:00,
2013-05-26 04:23:00,46.7,35.9,30.26,ENE,69,0.0,0.0,66,-99.99,,,0.00,1-wire,2013-05-26 09:23:00,
2013-05-26 04:28:00,47.1,36.4,30.27,ENE,69,0.0,0.0,66,-99.99,,,0.00,1-wire,2013-05-26 09:28:00,
2013-05-26 04:33:00,47.9,37.2,30.27,ENE,69,0.0,0.0,66,-99.99,,,0.00,1-wire,2013-05-26 09:33:00,
2013-05-26 04:39:00,47.7,37.0,30.27,ENE,69,0.0,0.0,66,-99.99,,,0.00,1-wire,2013-05-26 09:39:00,
2013-05-26 04:44:00,47.8,37.1,30.27,ENE,69,0.0,0.0,66,-99.99,,,0.00,1-wire,2013-05-26 09:44:00,
2013-05-26 04:49:00,47.7,37.3,30.27,ENE,69,0.0,0.0,67,-99.99,,,0.00,1-wire,2013-05-26 09:49:00,
2013-05-26 04:54:00,47.8,36.4,30.27,ENE,69,1.0,3.0,64,-99.99,,,0.00,1-wire,2013-05-26 09:54:00,
2013-05-26 05:00:00,47.9,37.2,30.26,ENE,69,0.0,0.0,66,-99.99,,,0.00,1-wire,2013-05-26 10:00:00,
2013-05-26 05:05:00,47.9,36.3,30.25,ENE,69,0.0,0.0,64,-99.99,,,0.00,1-wire,2013-05-26 10:05:00,
2013-05-26 05:10:00,48.1,37.0,30.25,ENE,71,0.0,0.0,65,-99.99,,,0.00,1-wire,2013-05-26 10:10:00,
2013-05-26 05:15:00,48.2,37.0,30.25,ENE,71,0.0,0.0,65,-99.99,,,0.00,1-wire,2013-05-26 10:15:00,
2013-05-26 05:20:00,48.4,37.4,30.26,ENE,71,0.0,0.0,66,-99.99,,,0.00,1-wire,2013-05-26 10:20:00,
2013-05-26 05:25:00,48.4,36.5,30.25,ENE,77,0.0,0.0,63,-99.99,,,0.00,1-wire,2013-05-26 10:25:00,
2013-05-26 05:30:00,48.0,35.2,30.26,ENE,77,1.0,3.0,61,-99.99,,,0.00,1-wire,2013-05-26 10:30:00,
2013-05-26 05:35:00,48.5,36.1,30.26,ENE,77,0.0,0.0,62,-99.99,,,0.00,1-wire,2013-05-26 10:35:00,
2013-05-26 05:41:00,48.2,34.9,30.26,ENE,67,0.0,3.0,60,-99.99,,,0.00,1-wire,2013-05-26 10:41:00,
2013-05-26 05:47:00,48.6,35.7,30.27,ENE,67,0.0,0.0,61,-99.99,,,0.00,1-wire,2013-05-26 10:47:00,
2013-05-26 05:52:00,48.7,36.2,30.27,ENE,72,0.0,0.0,62,-99.99,,,0.00,1-wire,2013-05-26 10:52:00,
2013-05-26 05:57:00,48.8,35.5,30.27,ENE,72,0.0,0.0,60,-99.99,,,0.00,1-wire,2013-05-26 10:57:00,
2013-05-26 06:02:00,48.8,35.5,30.27,ENE,72,0.0,3.0,60,-99.99,,,0.00,1-wire,2013-05-26 11:02:00,
2013-05-26 06:08:00,48.6,36.0,30.28,ENE,68,0.0,3.0,62,-99.99,,,0.00,1-wire,2013-05-26 11:08:00,
2013-05-26 06:14:00,49.3,35.9,30.28,ENE,68,0.0,0.0,60,-99.99,,,0.00,1-wire,2013-05-26 11:14:00,
2013-05-26 06:19:00,49.4,36.1,30.28,ENE,68,0.0,0.0,60,-99.99,,,0.00,1-wire,2013-05-26 11:19:00,
2013-05-26 06:24:00,49.5,36.4,30.27,NNE,28,0.0,0.0,61,-99.99,,,0.00,1-wire,2013-05-26 11:24:00,
2013-05-26 06:29:00,49.4,35.7,30.27,NNE,28,1.0,3.0,59,-99.99,,,0.00,1-wire,2013-05-26 11:29:00,
2013-05-26 06:35:00,49.4,35.9,30.28,NNE,28,1.0,3.0,60,-99.99,,,0.00,1-wire,2013-05-26 11:35:00,
2013-05-26 06:41:00,49.7,36.3,30.29,NNE,28,0.0,0.0,60,-99.99,,,0.00,1-wire,2013-05-26 11:41:00,
2013-05-26 06:46:00,49.9,36.4,30.29,NNE,28,1.0,3.0,60,-99.99,,,0.00,1-wire,2013-05-26 11:46:00,
2013-05-26 06:51:00,49.9,36.1,30.28,NNE,29,0.0,3.0,59,-99.99,,,0.00,1-wire,2013-05-26 11:51:00,
2013-05-26 06:56:00,50.0,37.0,30.27,NNE,29,0.0,0.0,61,-99.99,,,0.00,1-wire,2013-05-26 11:56:00,
2013-05-26 07:02:00,50.2,36.6,30.27,NNE,29,0.0,3.0,60,-99.99,,,0.00,1-wire,2013-05-26 12:02:00,
2013-05-26 07:07:00,50.4,36.8,30.27,ESE,113,0.0,0.0,60,-99.99,,,0.00,1-wire,2013-05-26 12:07:00,
2013-05-26 07:12:00,50.6,37.5,30.27,ESE,113,0.0,0.0,61,-99.99,,,0.00,1-wire,2013-05-26 12:12:00,
2013-05-26 07:17:00,50.9,37.3,30.28,ESE,113,0.0,0.0,59,-99.99,,,0.00,1-wire,2013-05-26 12:17:00,
2013-05-26 07:22:00,51.2,36.8,30.29,ESE,112,2.0,6.0,58,-99.99,,,0.00,1-wire,2013-05-26 12:22:00,
2013-05-26 07:27:00,51.3,36.4,30.29,ESE,112,1.0,6.0,57,-99.99,,,0.00,1-wire,2013-05-26 12:27:00,
2013-05-26 07:32:00,51.4,36.5,30.29,ESE,112,0.0,3.0,57,-99.99,,,0.00,1-wire,2013-05-26 12:32:00,
2013-05-26 07:37:00,51.7,37.3,30.29,ESE,115,1.0,6.0,58,-99.99,,,0.00,1-wire,2013-05-26 12:37:00,
2013-05-26 07:42:00,51.9,36.3,30.29,ESE,115,0.0,3.0,55,-99.99,,,0.00,1-wire,2013-05-26 12:42:00,
2013-05-26 07:47:00,51.9,36.9,30.29,ESE,115,1.0,3.0,56,-99.99,,,0.00,1-wire,2013-05-26 12:47:00,
2013-05-26 07:52:00,52.7,38.0,30.29,ESE,119,0.0,0.0,57,-99.99,,,0.00,1-wire,2013-05-26 12:52:00,
2013-05-26 07:57:00,52.5,36.8,30.29,ESE,119,0.0,3.0,55,-99.99,,,0.00,1-wire,2013-05-26 12:57:00,
2013-05-26 08:02:00,52.8,37.3,30.29,ESE,119,0.0,3.0,55,-99.99,,,0.00,1-wire,2013-05-26 13:02:00,
2013-05-26 08:07:00,53.5,38.0,30.29,ESE,118,1.0,6.0,56,-99.99,,,0.00,1-wire,2013-05-26 13:07:00,
2013-05-26 08:12:00,53.8,38.2,30.29,ESE,118,0.0,0.0,55,-99.99,,,0.00,1-wire,2013-05-26 13:12:00,
2013-05-26 08:17:00,54.0,39.1,30.28,ESE,118,0.0,3.0,57,-99.99,,,0.00,1-wire,2013-05-26 13:17:00,
2013-05-26 08:23:00,54.6,38.9,30.28,SE,124,0.0,0.0,55,-99.99,,,0.00,1-wire,2013-05-26 13:23:00,
2013-05-26 08:28:00,55.5,39.6,30.27,SE,124,0.0,3.0,55,-99.99,,,0.00,1-wire,2013-05-26 13:28:00,
2013-05-26 08:33:00,56.1,38.7,30.28,SE,124,2.0,6.0,52,-99.99,,,0.00,1-wire,2013-05-26 13:33:00,
2013-05-26 08:38:00,56.9,39.1,30.27,ESE,121,1.0,3.0,51,-99.99,,,0.00,1-wire,2013-05-26 13:38:00,
2013-05-26 08:43:00,57.0,38.9,30.27,ESE,121,1.0,3.0,51,-99.99,,,0.00,1-wire,2013-05-26 13:43:00,
2013-05-26 08:48:00,57.9,40.2,30.27,ESE,121,0.0,3.0,52,-99.99,,,0.00,1-wire,2013-05-26 13:48:00,
2013-05-26 08:53:00,58.3,38.9,30.27,ESE,114,2.0,6.0,48,-99.99,,,0.00,1-wire,2013-05-26 13:53:00,
2013-05-26 08:58:00,58.3,38.2,30.27,ESE,114,2.0,6.0,47,-99.99,,,0.00,1-wire,2013-05-26 13:58:00,
2013-05-26 09:03:00,58.6,37.9,30.27,ESE,114,4.0,6.0,46,-99.99,,,0.00,1-wire,2013-05-26 14:03:00,
2013-05-26 09:08:00,59.1,38.5,30.27,ESE,116,3.0,6.0,46,-99.99,,,0.00,1-wire,2013-05-26 14:08:00,
2013-05-26 09:13:00,58.7,38.4,30.27,ESE,116,1.0,3.0,47,-99.99,,,0.00,1-wire,2013-05-26 14:13:00,
2013-05-26 09:18:00,58.8,39.9,30.27,ESE,116,0.0,3.0,49,-99.99,,,0.00,1-wire,2013-05-26 14:18:00,
2013-05-26 09:23:00,59.1,40.5,30.27,ESE,116,0.0,3.0,50,-99.99,,,0.00,1-wire,2013-05-26 14:23:00,
2013-05-26 09:28:00,59.5,40.1,30.27,ESE,116,2.0,6.0,49,-99.99,,,0.00,1-wire,2013-05-26 14:28:00,
2013-05-26 09:33:00,59.4,39.1,30.27,ESE,116,1.0,6.0,47,-99.99,,,0.00,1-wire,2013-05-26 14:33:00,
2013-05-26 09:38:00,59.2,39.9,30.27,ESE,118,2.0,6.0,49,-99.99,,,0.00,1-wire,2013-05-26 14:38:00,
2013-05-26 09:43:00,59.3,39.4,30.27,ESE,118,1.0,3.0,48,-99.99,,,0.00,1-wire,2013-05-26 14:43:00,
2013-05-26 09:48:00,59.4,39.2,30.27,ESE,118,2.0,6.0,47,-99.99,,,0.00,1-wire,2013-05-26 14:48:00,
2013-05-26 09:53:00,60.5,41.2,30.27,ESE,117,1.0,6.0,49,-99.99,,,0.00,1-wire,2013-05-26 14:53:00,
2013-05-26 09:58:00,60.3,40.4,30.27,ESE,117,2.0,3.0,48,-99.99,,,0.00,1-wire,2013-05-26 14:58:00,
2013-05-26 10:03:00,60.5,39.7,30.27,ESE,117,1.0,3.0,46,-99.99,,,0.00,1-wire,2013-05-26 15:03:00,
2013-05-26 10:08:00,60.5,40.4,30.27,ESE,122,2.0,6.0,47,-99.99,,,0.00,1-wire,2013-05-26 15:08:00,
2013-05-26 10:14:00,60.8,40.1,30.27,ESE,122,1.0,3.0,46,-99.99,,,0.00,1-wire,2013-05-26 15:14:00,
2013-05-26 10:19:00,60.8,40.2,30.27,ESE,122,1.0,3.0,47,-99.99,,,0.00,1-wire,2013-05-26 15:19:00,
2013-05-26 10:24:00,61.0,40.1,30.27,ESE,115,1.0,6.0,46,-99.99,,,0.00,1-wire,2013-05-26 15:24:00,
2013-05-26 10:29:00,61.5,41.3,30.27,ESE,115,1.0,3.0,47,-99.99,,,0.00,1-wire,2013-05-26 15:29:00,
2013-05-26 10:35:00,62.0,41.4,30.27,ESE,115,2.0,6.0,47,-99.99,,,0.00,1-wire,2013-05-26 15:35:00,
2013-05-26 10:40:00,62.4,41.4,30.26,ESE,122,1.0,3.0,46,-99.99,,,0.00,1-wire,2013-05-26 15:40:00,
2013-05-26 10:45:00,62.8,41.3,30.26,ESE,122,0.0,0.0,45,-99.99,,,0.00,1-wire,2013-05-26 15:45:00,
2013-05-26 10:50:00,62.9,42.1,30.26,ESE,122,0.0,3.0,47,-99.99,,,0.00,1-wire,2013-05-26 15:50:00,
2013-05-26 10:56:00,63.0,42.0,30.26,ESE,115,1.0,5.0,46,-99.99,,,0.00,1-wire,2013-05-26 15:56:00,
2013-05-26 11:01:00,62.8,42.5,30.26,ESE,115,3.0,6.0,47,-99.99,,,0.00,1-wire,2013-05-26 16:01:00,
2013-05-26 11:06:00,62.8,41.5,30.26,ESE,121,2.0,6.0,46,-99.99,,,0.00,1-wire,2013-05-26 16:06:00,
2013-05-26 11:11:00,63.1,42.5,30.26,ESE,121,1.0,3.0,47,-99.99,,,0.00,1-wire,2013-05-26 16:11:00,
2013-05-26 11:17:00,63.2,42.2,30.26,ESE,121,1.0,3.0,46,-99.99,,,0.00,1-wire,2013-05-26 16:17:00,
2013-05-26 11:22:00,63.3,42.0,30.26,ESE,123,2.0,6.0,46,-99.99,,,0.00,1-wire,2013-05-26 16:22:00,
2013-05-26 11:27:00,63.6,42.3,30.26,ESE,123,2.0,8.0,46,-99.99,,,0.00,1-wire,2013-05-26 16:27:00,
2013-05-26 11:32:00,65.0,42.3,30.26,ESE,123,3.0,9.0,44,-99.99,,,0.00,1-wire,2013-05-26 16:32:00,
2013-05-26 11:38:00,65.1,44.0,30.25,ESE,123,2.0,6.0,46,-99.99,,,0.00,1-wire,2013-05-26 16:38:00,
2013-05-26 11:43:00,66.3,44.4,30.25,ESE,123,2.0,3.0,45,-99.99,,,0.00,1-wire,2013-05-26 16:43:00,
2013-05-26 11:48:00,66.0,42.5,30.25,ESE,123,3.0,9.0,42,-99.99,,,0.00,1-wire,2013-05-26 16:48:00,
2013-05-26 11:53:00,66.2,42.9,30.25,ESE,120,2.0,6.0,43,-99.99,,,0.00,1-wire,2013-05-26 16:53:00,
2013-05-26 11:58:00,66.9,43.8,30.25,ESE,120,2.0,5.0,43,-99.99,,,0.00,1-wire,2013-05-26 16:58:00,
2013-05-26 12:03:00,68.1,44.1,30.25,ESE,120,2.0,5.0,42,-99.99,,,0.00,1-wire,2013-05-26 17:03:00,
2013-05-26 12:08:00,68.8,43.5,30.25,ESE,116,2.0,6.0,40,-99.99,,,0.00,1-wire,2013-05-26 17:08:00,
2013-05-26 12:13:00,68.3,43.5,30.25,ESE,116,1.0,3.0,41,-99.99,,,0.00,1-wire,2013-05-26 17:13:00,
2013-05-26 12:18:00,67.5,43.0,30.25,ESE,116,4.0,6.0,41,-99.99,,,0.00,1-wire,2013-05-26 17:18:00,
2013-05-26 12:23:00,66.8,42.0,30.25,ESE,110,2.0,6.0,41,-99.99,,,0.00,1-wire,2013-05-26 17:23:00,
2013-05-26 12:28:00,66.8,41.8,30.25,ESE,110,3.0,8.0,40,-99.99,,,0.00,1-wire,2013-05-26 17:28:00,
2013-05-26 12:33:00,66.6,42.6,30.24,ESE,110,3.0,6.0,42,-99.99,,,0.00,1-wire,2013-05-26 17:33:00,
2013-05-26 12:38:00,66.5,42.4,30.25,ESE,111,2.0,6.0,42,-99.99,,,0.00,1-wire,2013-05-26 17:38:00,
2013-05-26 12:43:00,66.8,44.6,30.24,ESE,111,1.0,3.0,45,-99.99,,,0.00,1-wire,2013-05-26 17:43:00,
2013-05-26 12:48:00,66.8,43.6,30.23,ESE,111,3.0,6.0,43,-99.99,,,0.00,1-wire,2013-05-26 17:48:00,
2013-05-26 12:53:00,67.0,42.6,30.23,ESE,105,4.0,11.0,41,-99.99,,,0.00,1-wire,2013-05-26 17:53:00,
2013-05-26 12:58:00,67.2,44.0,30.23,ESE,105,2.0,8.0,43,-99.99,,,0.00,1-wire,2013-05-26 17:58:00,
2013-05-26 13:03:00,67.3,44.5,30.23,ESE,105,2.0,6.0,44,-99.99,,,0.00,1-wire,2013-05-26 18:03:00,
2013-05-26 13:08:00,67.2,43.6,30.23,ESE,117,1.0,3.0,43,-99.99,,,0.00,1-wire,2013-05-26 18:08:00,
2013-05-26 13:44:00,66.2,43.4,30.22,SE,124,0.0,3.0,44,-99.99,,,0.00,1-wire,2013-05-26 18:44:00,
2013-05-26 13:49:00,66.2,42.8,30.22,SE,124,2.0,6.0,43,-99.99,,,0.00,1-wire,2013-05-26 18:49:00,
2013-05-26 13:54:00,66.2,43.4,30.22,ESE,114,1.0,3.0,44,-99.99,,,0.00,1-wire,2013-05-26 18:54:00,
2013-05-26 13:59:00,66.1,42.8,30.22,ESE,114,4.0,8.0,43,-99.99,,,0.00,1-wire,2013-05-26 18:59:00,
2013-05-26 14:04:00,65.5,42.7,30.22,ESE,114,2.0,6.0,44,-99.99,,,0.00,1-wire,2013-05-26 19:04:00,
2013-05-26 14:09:00,65.4,42.6,30.21,SE,132,0.0,3.0,44,-99.99,,,0.00,1-wire,2013-05-26 19:09:00,
2013-05-26 14:14:00,64.9,42.6,30.21,SE,132,2.0,6.0,44,-99.99,,,0.00,1-wire,2013-05-26 19:14:00,
2013-05-26 14:19:00,65.0,42.7,30.22,SE,132,1.0,6.0,44,-99.99,,,0.00,1-wire,2013-05-26 19:19:00,
2013-05-26 14:24:00,64.7,43.2,30.21,ESE,120,0.0,3.0,46,-99.99,,,0.00,1-wire,2013-05-26 19:24:00,
2013-05-26 14:29:00,64.6,44.4,30.21,ESE,120,3.0,9.0,48,-99.99,,,0.00,1-wire,2013-05-26 19:29:00,
2013-05-26 14:34:00,64.4,44.8,30.21,ESE,120,1.0,6.0,49,-99.99,,,0.00,1-wire,2013-05-26 19:34:00,
2013-05-26 14:39:00,64.4,44.9,30.21,SE,131,0.0,3.0,49,-99.99,,,0.00,1-wire,2013-05-26 19:39:00,
2013-05-26 14:44:00,64.0,44.0,30.20,SE,131,1.0,3.0,48,-99.99,,,0.00,1-wire,2013-05-26 19:44:00,
2013-05-26 14:49:00,64.0,46.0,30.20,SE,131,0.0,3.0,52,-99.99,,,0.00,1-wire,2013-05-26 19:49:00,
2013-05-26 14:54:00,64.3,47.5,30.20,SE,132,1.0,6.0,54,-99.99,,,0.00,1-wire,2013-05-26 19:54:00,
2013-05-26 14:59:00,64.4,46.5,30.20,SE,132,1.0,3.0,52,-99.99,,,0.00,1-wire,2013-05-26 19:59:00,
2013-05-26 15:04:00,64.3,46.5,30.20,SE,132,1.0,3.0,52,-99.99,,,0.00,1-wire,2013-05-26 20:04:00,
2013-05-26 15:09:00,63.6,47.1,30.20,ESE,119,1.0,3.0,55,-99.99,,,0.00,1-wire,2013-05-26 20:09:00,
2013-05-26 15:14:00,63.2,45.6,30.20,ESE,119,3.0,6.0,53,-99.99,,,0.00,1-wire,2013-05-26 20:14:00,
2013-05-26 15:19:00,62.9,47.6,30.20,ESE,119,0.0,3.0,57,-99.99,,,0.00,1-wire,2013-05-26 20:19:00,
2013-05-26 15:24:00,62.2,47.4,30.20,ESE,116,1.0,3.0,58,-99.99,,,0.00,1-wire,2013-05-26 20:24:00,
2013-05-26 15:29:00,61.0,48.5,30.20,ESE,116,1.0,3.0,64,-99.99,,,0.00,1-wire,2013-05-26 20:29:00,
2013-05-26 15:34:00,60.7,50.1,30.19,ESE,116,0.0,3.0,68,-99.99,,,0.00,1-wire,2013-05-26 20:34:00,
2013-05-26 15:39:00,59.7,50.2,30.19,ESE,117,0.0,3.0,71,-99.99,,,0.01,1-wire,2013-05-26 20:39:00,
2013-05-26 15:44:00,59.1,49.8,30.19,ESE,117,1.0,3.0,71,-99.99,,,0.01,1-wire,2013-05-26 20:44:00,
2013-05-26 15:49:00,58.8,50.0,30.19,ESE,117,0.0,3.0,73,-99.99,,,0.01,1-wire,2013-05-26 20:49:00,
2013-05-26 15:54:00,58.6,50.2,30.19,ESE,115,1.0,3.0,74,-99.99,,,0.01,1-wire,2013-05-26 20:54:00,
2013-05-26 15:59:00,58.3,51.0,30.20,ESE,115,1.0,3.0,76,-99.99,,,0.01,1-wire,2013-05-26 20:59:00,
2013-05-26 16:04:00,58.7,51.2,30.19,ESE,115,1.0,3.0,76,-99.99,,,0.01,1-wire,2013-05-26 21:04:00,
2013-05-26 16:10:00,58.9,51.6,30.19,ESE,120,0.0,3.0,77,-99.99,,,0.01,1-wire,2013-05-26 21:10:00,
2013-05-26 16:16:00,58.8,51.8,30.19,ESE,120,0.0,0.0,78,-99.99,,,0.01,1-wire,2013-05-26 21:16:00,
2013-05-26 16:22:00,58.9,51.6,30.20,SE,133,0.0,3.0,77,-99.99,,,0.01,1-wire,2013-05-26 21:22:00,
2013-05-26 16:27:00,58.7,51.4,30.20,SE,133,0.0,3.0,77,-99.99,,,0.01,1-wire,2013-05-26 21:27:00,
2013-05-26 16:32:00,59.2,52.6,30.19,SE,133,0.0,0.0,79,-99.99,,,0.01,1-wire,2013-05-26 21:32:00,
2013-05-26 16:37:00,59.1,52.7,30.19,ESE,115,0.0,3.0,79,-99.99,,,0.01,1-wire,2013-05-26 21:37:00,
2013-05-26 16:43:00,59.1,52.2,30.19,ESE,115,0.0,3.0,78,-99.99,,,0.01,1-wire,2013-05-26 21:43:00,
2013-05-26 16:49:00,58.8,52.3,30.20,ESE,115,0.0,3.0,79,-99.99,,,0.01,1-wire,2013-05-26 21:49:00,
2013-05-26 16:55:00,58.8,52.6,30.19,SE,128,0.0,0.0,80,-99.99,,,0.01,1-wire,2013-05-26 21:55:00,
2013-05-26 17:00:00,58.3,51.9,30.19,SE,128,0.0,3.0,79,-99.99,,,0.01,1-wire,2013-05-26 22:00:00,
2013-05-26 17:05:00,57.9,51.5,30.19,SE,128,0.0,3.0,79,-99.99,,,0.01,1-wire,2013-05-26 22:05:00,
2013-05-26 17:11:00,57.9,52.2,30.19,SE,139,0.0,0.0,81,-99.99,,,0.01,1-wire,2013-05-26 22:11:00,
2013-05-26 17:16:00,57.8,51.8,30.19,SE,139,0.0,0.0,80,-99.99,,,0.01,1-wire,2013-05-26 22:16:00,
2013-05-26 17:21:00,57.7,51.8,30.19,SE,132,0.0,0.0,81,-99.99,,,0.01,1-wire,2013-05-26 22:21:00,
2013-05-26 17:26:00,57.2,51.4,30.18,SE,132,1.0,5.0,81,-99.99,,,0.01,1-wire,2013-05-26 22:26:00,
2013-05-26 17:31:00,57.3,51.4,30.19,SE,132,0.0,3.0,81,-99.99,,,0.01,1-wire,2013-05-26 22:31:00,
2013-05-26 17:36:00,56.9,51.3,30.19,ESE,123,1.0,6.0,82,-99.99,,,0.01,1-wire,2013-05-26 22:36:00,
2013-05-26 17:41:00,57.3,51.2,30.19,ESE,123,0.0,0.0,80,-99.99,,,0.01,1-wire,2013-05-26 22:41:00,
2013-05-26 17:46:00,57.0,51.5,30.18,ESE,123,2.0,6.0,82,-99.99,,,0.01,1-wire,2013-05-26 22:46:00,
2013-05-26 17:51:00,57.0,50.8,30.19,SE,134,0.0,0.0,80,-99.99,,,0.01,1-wire,2013-05-26 22:51:00,
2013-05-26 17:56:00,56.9,50.4,30.18,SE,134,1.0,3.0,79,-99.99,,,0.01,1-wire,2013-05-26 22:56:00,
2013-05-26 18:01:00,56.9,51.0,30.18,SE,134,1.0,3.0,81,-99.99,,,0.01,1-wire,2013-05-26 23:01:00,
2013-05-26 18:06:00,56.9,50.4,30.18,ESE,118,0.0,0.0,79,-99.99,,,0.01,1-wire,2013-05-26 23:06:00,
2013-05-26 18:11:00,57.1,50.5,30.18,ESE,118,0.0,0.0,79,-99.99,,,0.01,1-wire,2013-05-26 23:11:00,
2013-05-26 18:16:00,57.2,50.5,30.18,ESE,118,0.0,0.0,78,-99.99,,,0.01,1-wire,2013-05-26 23:16:00,
2013-05-26 18:21:00,57.1,50.9,30.18,SE,124,0.0,0.0,80,-99.99,,,0.01,1-wire,2013-05-26 23:21:00,
2013-05-26 18:26:00,56.8,49.5,30.18,SE,124,2.0,6.0,77,-99.99,,,0.01,1-wire,2013-05-26 23:26:00,
2013-05-26 18:31:00,56.9,49.5,30.17,SE,124,1.0,3.0,76,-99.99,,,0.01,1-wire,2013-05-26 23:31:00,
2013-05-26 18:36:00,57.4,50.7,30.17,ESE,120,0.0,0.0,78,-99.99,,,0.01,1-wire,2013-05-26 23:36:00,
2013-05-26 18:41:00,57.2,49.6,30.16,ESE,120,1.0,3.0,76,-99.99,,,0.01,1-wire,2013-05-26 23:41:00,
2013-05-26 18:47:00,57.3,49.7,30.16,ESE,120,0.0,0.0,76,-99.99,,,0.01,1-wire,2013-05-26 23:47:00,
2013-05-26 18:52:00,57.1,49.4,30.16,ESE,117,0.0,3.0,76,-99.99,,,0.01,1-wire,2013-05-26 23:52:00,
2013-05-26 18:57:00,57.1,49.3,30.16,ESE,117,0.0,0.0,75,-99.99,,,0.01,1-wire,2013-05-26 23:57:00,
2013-05-26 19:02:00,57.0,49.7,30.16,ESE,117,0.0,3.0,77,-99.99,,,0.01,1-wire,2013-05-27 00:02:00,
2013-05-26 19:07:00,56.8,49.4,30.16,ESE,118,0.0,3.0,76,-99.99,,,0.01,1-wire,2013-05-27 00:07:00,
2013-05-26 19:12:00,56.8,49.3,30.16,ESE,118,0.0,3.0,76,-99.99,,,0.01,1-wire,2013-05-27 00:12:00,
2013-05-26 19:17:00,57.0,49.4,30.16,ESE,118,0.0,0.0,76,-99.99,,,0.01,1-wire,2013-05-27 00:17:00,
2013-05-26 19:22:00,56.8,49.7,30.16,ESE,116,2.0,6.0,77,-99.99,,,0.01,1-wire,2013-05-27 00:22:00,
2013-05-26 19:27:00,56.8,49.4,30.16,ESE,116,0.0,3.0,76,-99.99,,,0.01,1-wire,2013-05-27 00:27:00,
2013-05-26 19:32:00,56.5,49.3,30.15,ESE,116,3.0,6.0,77,-99.99,,,0.01,1-wire,2013-05-27 00:32:00,
2013-05-26 19:37:00,56.8,49.7,30.16,ESE,108,1.0,3.0,77,-99.99,,,0.01,1-wire,2013-05-27 00:37:00,
2013-05-26 19:42:00,56.8,49.8,30.16,ESE,108,0.0,3.0,77,-99.99,,,0.01,1-wire,2013-05-27 00:42:00,
2013-05-26 19:47:00,56.6,49.5,30.16,ESE,108,0.0,3.0,77,-99.99,,,0.01,1-wire,2013-05-27 00:47:00,
2013-05-26 19:53:00,56.5,49.6,30.16,ESE,112,0.0,0.0,78,-99.99,,,0.01,1-wire,2013-05-27 00:53:00,
2013-05-26 19:58:00,56.5,49.5,30.16,ESE,112,0.0,3.0,77,-99.99,,,0.01,1-wire,2013-05-27 00:58:00,
2013-05-26 20:03:00,56.6,50.0,30.16,ESE,112,0.0,3.0,78,-99.99,,,0.01,1-wire,2013-05-27 01:03:00,
2013-05-26 20:08:00,56.1,49.1,30.16,ESE,120,1.0,6.0,77,-99.99,,,0.01,1-wire,2013-05-27 01:08:00,
2013-05-26 20:13:00,56.3,49.4,30.16,ESE,120,0.0,0.0,78,-99.99,,,0.01,1-wire,2013-05-27 01:13:00,
2013-05-26 20:19:00,56.1,49.2,30.16,ESE,120,1.0,3.0,78,-99.99,,,0.01,1-wire,2013-05-27 01:19:00,
2013-05-26 20:24:00,56.2,49.1,30.16,ESE,118,0.0,3.0,77,-99.99,,,0.01,1-wire,2013-05-27 01:24:00,
2013-05-26 20:29:00,55.9,48.8,30.16,ESE,118,0.0,3.0,77,-99.99,,,0.01,1-wire,2013-05-27 01:29:00,
2013-05-26 20:34:00,55.9,48.7,30.15,ESE,118,0.0,3.0,77,-99.99,,,0.01,1-wire,2013-05-27 01:34:00,
2013-05-26 20:39:00,55.8,48.6,30.15,ESE,115,0.0,3.0,77,-99.99,,,0.01,1-wire,2013-05-27 01:39:00,
2013-05-26 20:45:00,55.7,48.2,30.15,ESE,115,0.0,3.0,76,-99.99,,,0.01,1-wire,2013-05-27 01:45:00,
2013-05-26 20:51:00,56.0,48.6,30.16,ESE,113,0.0,0.0,76,-99.99,,,0.01,1-wire,2013-05-27 01:51:00,
2013-05-26 20:56:00,55.8,48.4,30.16,ESE,113,0.0,0.0,76,-99.99,,,0.01,1-wire,2013-05-27 01:56:00,
2013-05-26 21:01:00,55.7,47.9,30.16,ESE,113,0.0,0.0,75,-99.99,,,0.01,1-wire,2013-05-27 02:01:00,
2013-05-26 21:06:00,55.9,48.2,30.16,SE,124,1.0,3.0,75,-99.99,,,0.01,1-wire,2013-05-27 02:06:00,
2013-05-26 21:11:00,55.6,47.8,30.16,SE,124,1.0,3.0,75,-99.99,,,0.01,1-wire,2013-05-27 02:11:00,
2013-05-26 21:17:00,55.9,48.3,30.16,SE,124,0.0,3.0,76,-99.99,,,0.01,1-wire,2013-05-27 02:17:00,
2013-05-26 21:23:00,55.9,47.4,30.16,ESE,115,0.0,0.0,73,-99.99,,,0.01,1-wire,2013-05-27 02:23:00,
2013-05-26 21:28:00,55.7,47.1,30.16,ESE,115,1.0,6.0,73,-99.99,,,0.01,1-wire,2013-05-27 02:28:00,
2013-05-26 21:33:00,55.5,46.6,30.16,ESE,115,1.0,3.0,72,-99.99,,,0.01,1-wire,2013-05-27 02:33:00,
2013-05-26 21:38:00,55.8,47.4,30.16,ESE,110,0.0,3.0,73,-99.99,,,0.01,1-wire,2013-05-27 02:38:00,
2013-05-26 21:43:00,55.7,47.0,30.15,ESE,110,0.0,0.0,72,-99.99,,,0.01,1-wire,2013-05-27 02:43:00,
2013-05-26 21:49:00,55.9,46.8,30.15,ESE,110,0.0,0.0,72,-99.99,,,0.01,1-wire,2013-05-27 02:49:00,
2013-05-26 21:54:00,56.0,46.8,30.16,ESE,112,0.0,0.0,71,-99.99,,,0.01,1-wire,2013-05-27 02:54:00,
2013-05-26 21:59:00,55.8,46.7,30.16,ESE,112,0.0,3.0,72,-99.99,,,0.01,1-wire,2013-05-27 02:59:00,
2013-05-26 22:04:00,55.9,47.0,30.16,ESE,112,0.0,0.0,72,-99.99,,,0.01,1-wire,2013-05-27 03:04:00,
2013-05-26 22:09:00,55.8,47.1,30.15,ESE,109,1.0,3.0,73,-99.99,,,0.01,1-wire,2013-05-27 03:09:00,
2013-05-26 22:15:00,56.0,46.8,30.15,ESE,109,1.0,3.0,71,-99.99,,,0.01,1-wire,2013-05-27 03:15:00,
2013-05-26 22:20:00,56.2,46.7,30.16,ESE,109,0.0,0.0,71,-99.99,,,0.01,1-wire,2013-05-27 03:20:00,
2013-05-26 22:25:00,56.1,46.6,30.16,ESE,106,0.0,3.0,70,-99.99,,,0.01,1-wire,2013-05-27 03:25:00,
2013-05-26 22:30:00,56.3,47.3,30.16,ESE,106,0.0,0.0,72,-99.99,,,0.01,1-wire,2013-05-27 03:30:00,
2013-05-26 22:35:00,55.9,46.5,30.16,ESE,106,0.0,3.0,71,-99.99,,,0.01,1-wire,2013-05-27 03:35:00,
2013-05-26 22:40:00,56.3,46.7,30.17,East,89,0.0,3.0,70,-99.99,,,0.01,1-wire,2013-05-27 03:40:00,
2013-05-26 22:45:00,56.1,46.5,30.16,East,89,0.0,3.0,70,-99.99,,,0.01,1-wire,2013-05-27 03:45:00,
2013-05-26 22:50:00,56.0,46.5,30.16,East,89,1.0,3.0,70,-99.99,,,0.01,1-wire,2013-05-27 03:50:00,
2013-05-26 22:55:00,56.2,46.3,30.16,ESE,113,0.0,3.0,69,-99.99,,,0.01,1-wire,2013-05-27 03:55:00,
2013-05-26 23:00:00,56.2,46.0,30.16,ESE,113,0.0,3.0,68,-99.99,,,0.01,1-wire,2013-05-27 04:00:00,
2013-05-26 23:01:00,56.3,46.1,30.16,ESE,113,0.0,0.0,68,-99.99,,,0.01,1-wire,2013-05-27 04:01:00,
2013-05-26 23:02:00,56.4,45.9,30.16,ESE,113,0.0,0.0,68,-99.99,,,0.01,1-wire,2013-05-27 04:02:00,
2013-05-26 23:03:00,56.4,46.0,30.16,ESE,113,0.0,3.0,68,-99.99,,,0.01,1-wire,2013-05-27 04:03:00,
2013-05-26 23:05:00,56.5,46.3,30.16,ESE,113,0.0,0.0,69,-99.99,,,0.01,1-wire,2013-05-27 04:05:00,
2013-05-26 23:10:00,56.0,45.4,30.16,East,91,1.0,3.0,67,-99.99,,,0.01,1-wire,2013-05-27 04:10:00,
2013-05-26 23:14:00,56.2,45.9,30.16,East,91,1.0,3.0,68,-99.99,,,0.01,1-wire,2013-05-27 04:14:00,
2013-05-26 23:19:00,56.4,46.1,30.16,East,91,0.0,3.0,68,-99.99,,,0.01,1-wire,2013-05-27 04:19:00,
2013-05-26 23:24:00,56.0,45.2,30.16,East,88,1.0,3.0,67,-99.99,,,0.01,1-wire,2013-05-27 04:24:00,
2013-05-26 23:29:00,56.0,45.0,30.16,East,88,0.0,3.0,66,-99.99,,,0.01,1-wire,2013-05-27 04:29:00,
2013-05-26 23:34:00,56.2,46.1,30.16,East,88,1.0,3.0,69,-99.99,,,0.01,1-wire,2013-05-27 04:34:00,
2013-05-26 23:39:00,56.3,45.5,30.16,East,92,0.0,0.0,67,-99.99,,,0.01,1-wire,2013-05-27 04:39:00,
2013-05-26 23:44:00,56.1,45.1,30.16,East,92,0.0,0.0,67,-99.99,,,0.01,1-wire,2013-05-27 04:44:00,
2013-05-26 23:49:00,56.2,45.3,30.16,East,92,1.0,3.0,67,-99.99,,,0.01,1-wire,2013-05-27 04:49:00,
2013-05-26 23:54:00,55.9,45.4,30.16,East,96,1.0,3.0,68,-99.99,,,0.01,1-wire,2013-05-27 04:54:00,
2013-05-26 23:59:00,55.7,44.4,30.15,East,96,0.0,3.0,66,-99.99,,,0.01,1-wire,2013-05-27 04:59:00,